sensor_id;sensor_type;location;lat;lon;timestamp;P1;durP1;ratioP1;P2;durP2;ratioP2
5841;SDS011;2947;52.276;9.946;2023-05-28T00:00:36;12.27;;;6.18;;
5841;SDS011;2947;52.276;9.946;2023-05-28T00:03:02;14.23;;;5.88;;
5841;SDS011;2947;52.276;9.946;2023-05-28T00:05:28;17.55;;;6.38;;
5841;SDS011;2947;52.276;9.946;2023-05-28T00:07:53;11.40;;;5.93;;
5841;SDS011;2947;52.276;9.946;2023-05-28T00:10:21;18.10;;;6.28;;
5841;SDS011;2947;52.276;9.946;2023-05-28T00:12:48;11.80;;;5.95;;
5841;SDS011;2947;52.276;9.946;2023-05-28T00:15:14;13.15;;;6.65;;
5841;SDS011;2947;52.276;9.946;2023-05-28T00:17:40;13.27;;;7.18;;
5841;SDS011;2947;52.276;9.946;2023-05-28T00:20:06;14.95;;;6.72;;
5841;SDS011;2947;52.276;9.946;2023-05-28T00:22:32;17.77;;;7.60;;
5841;SDS011;2947;52.276;9.946;2023-05-28T00:24:58;19.55;;;7.30;;
5841;SDS011;2947;52.276;9.946;2023-05-28T00:27:24;15.48;;;6.50;;
5841;SDS011;2947;52.276;9.946;2023-05-28T00:29:49;13.48;;;7.03;;
5841;SDS011;2947;52.276;9.946;2023-05-28T00:32:15;14.63;;;6.53;;
5841;SDS011;2947;52.276;9.946;2023-05-28T00:34:41;12.55;;;6.10;;
5841;SDS011;2947;52.276;9.946;2023-05-28T00:37:06;18.25;;;5.93;;
5841;SDS011;2947;52.276;9.946;2023-05-28T00:39:32;14.35;;;5.80;;
5841;SDS011;2947;52.276;9.946;2023-05-28T00:42:01;17.80;;;7.28;;
5841;SDS011;2947;52.276;9.946;2023-05-28T00:44:28;13.25;;;6.18;;
5841;SDS011;2947;52.276;9.946;2023-05-28T00:46:56;20.98;;;6.95;;
5841;SDS011;2947;52.276;9.946;2023-05-28T00:49:22;17.30;;;7.03;;
5841;SDS011;2947;52.276;9.946;2023-05-28T00:51:48;17.23;;;6.70;;
5841;SDS011;2947;52.276;9.946;2023-05-28T00:54:14;10.23;;;6.25;;
5841;SDS011;2947;52.276;9.946;2023-05-28T00:56:41;16.90;;;7.28;;
5841;SDS011;2947;52.276;9.946;2023-05-28T00:59:09;12.07;;;6.38;;
5841;SDS011;2947;52.276;9.946;2023-05-28T01:01:35;20.02;;;6.82;;
5841;SDS011;2947;52.276;9.946;2023-05-28T01:04:02;14.73;;;5.60;;
5841;SDS011;2947;52.276;9.946;2023-05-28T01:06:28;11.70;;;5.95;;
5841;SDS011;2947;52.276;9.946;2023-05-28T01:08:54;17.30;;;5.93;;
5841;SDS011;2947;52.276;9.946;2023-05-28T01:11:21;13.10;;;5.80;;
5841;SDS011;2947;52.276;9.946;2023-05-28T01:13:48;12.32;;;6.05;;
5841;SDS011;2947;52.276;9.946;2023-05-28T01:16:15;11.25;;;6.00;;
5841;SDS011;2947;52.276;9.946;2023-05-28T01:18:41;21.98;;;7.20;;
5841;SDS011;2947;52.276;9.946;2023-05-28T01:21:09;12.95;;;6.57;;
5841;SDS011;2947;52.276;9.946;2023-05-28T01:23:42;13.02;;;6.65;;
5841;SDS011;2947;52.276;9.946;2023-05-28T01:26:10;16.15;;;6.53;;
5841;SDS011;2947;52.276;9.946;2023-05-28T01:28:37;15.05;;;6.88;;
5841;SDS011;2947;52.276;9.946;2023-05-28T01:31:09;18.30;;;6.70;;
5841;SDS011;2947;52.276;9.946;2023-05-28T01:33:41;14.38;;;6.28;;
5841;SDS011;2947;52.276;9.946;2023-05-28T01:36:10;14.32;;;7.55;;
5841;SDS011;2947;52.276;9.946;2023-05-28T01:38:43;16.60;;;7.00;;
5841;SDS011;2947;52.276;9.946;2023-05-28T01:41:17;16.38;;;6.70;;
5841;SDS011;2947;52.276;9.946;2023-05-28T01:43:44;15.88;;;7.07;;
5841;SDS011;2947;52.276;9.946;2023-05-28T01:46:10;11.55;;;6.00;;
5841;SDS011;2947;52.276;9.946;2023-05-28T01:48:37;15.65;;;5.85;;
5841;SDS011;2947;52.276;9.946;2023-05-28T01:51:03;13.90;;;5.70;;
5841;SDS011;2947;52.276;9.946;2023-05-28T01:53:30;14.07;;;5.43;;
5841;SDS011;2947;52.276;9.946;2023-05-28T01:55:56;12.88;;;5.07;;
5841;SDS011;2947;52.276;9.946;2023-05-28T01:58:22;12.32;;;5.07;;
5841;SDS011;2947;52.276;9.946;2023-05-28T02:00:59;14.43;;;5.63;;
5841;SDS011;2947;52.276;9.946;2023-05-28T02:03:38;13.75;;;5.90;;
5841;SDS011;2947;52.276;9.946;2023-05-28T02:06:04;12.27;;;4.57;;
5841;SDS011;2947;52.276;9.946;2023-05-28T02:08:30;13.70;;;5.68;;
5841;SDS011;2947;52.276;9.946;2023-05-28T02:10:56;10.30;;;5.18;;
5841;SDS011;2947;52.276;9.946;2023-05-28T02:13:21;14.48;;;5.05;;
5841;SDS011;2947;52.276;9.946;2023-05-28T02:15:47;12.55;;;5.30;;
5841;SDS011;2947;52.276;9.946;2023-05-28T02:18:13;12.48;;;4.93;;
5841;SDS011;2947;52.276;9.946;2023-05-28T02:20:41;8.80;;;4.25;;
5841;SDS011;2947;52.276;9.946;2023-05-28T02:23:07;16.67;;;4.20;;
5841;SDS011;2947;52.276;9.946;2023-05-28T02:25:33;13.55;;;4.10;;
5841;SDS011;2947;52.276;9.946;2023-05-28T02:27:59;15.63;;;4.18;;
5841;SDS011;2947;52.276;9.946;2023-05-28T02:30:25;9.13;;;4.43;;
5841;SDS011;2947;52.276;9.946;2023-05-28T02:32:51;10.95;;;4.63;;
5841;SDS011;2947;52.276;9.946;2023-05-28T02:35:16;10.38;;;4.82;;
5841;SDS011;2947;52.276;9.946;2023-05-28T02:37:44;18.55;;;6.40;;
5841;SDS011;2947;52.276;9.946;2023-05-28T02:40:10;17.00;;;5.85;;
5841;SDS011;2947;52.276;9.946;2023-05-28T02:42:37;13.98;;;5.60;;
5841;SDS011;2947;52.276;9.946;2023-05-28T02:45:03;13.60;;;4.80;;
5841;SDS011;2947;52.276;9.946;2023-05-28T02:47:30;18.75;;;6.25;;
5841;SDS011;2947;52.276;9.946;2023-05-28T02:49:55;18.98;;;4.80;;
5841;SDS011;2947;52.276;9.946;2023-05-28T02:52:21;14.55;;;4.82;;
5841;SDS011;2947;52.276;9.946;2023-05-28T02:54:47;15.20;;;4.88;;
5841;SDS011;2947;52.276;9.946;2023-05-28T02:57:12;14.52;;;5.65;;
5841;SDS011;2947;52.276;9.946;2023-05-28T02:59:38;11.35;;;4.93;;
5841;SDS011;2947;52.276;9.946;2023-05-28T03:02:04;9.10;;;4.65;;
5841;SDS011;2947;52.276;9.946;2023-05-28T03:04:30;9.80;;;5.05;;
5841;SDS011;2947;52.276;9.946;2023-05-28T03:06:56;13.57;;;5.40;;
5841;SDS011;2947;52.276;9.946;2023-05-28T03:09:22;18.63;;;4.40;;
5841;SDS011;2947;52.276;9.946;2023-05-28T03:11:47;16.30;;;5.47;;
5841;SDS011;2947;52.276;9.946;2023-05-28T03:14:13;11.45;;;4.95;;
5841;SDS011;2947;52.276;9.946;2023-05-28T03:16:39;12.57;;;5.82;;
5841;SDS011;2947;52.276;9.946;2023-05-28T03:19:05;18.17;;;5.18;;
5841;SDS011;2947;52.276;9.946;2023-05-28T03:21:31;16.85;;;5.40;;
5841;SDS011;2947;52.276;9.946;2023-05-28T03:23:56;13.77;;;5.50;;
5841;SDS011;2947;52.276;9.946;2023-05-28T03:26:22;11.82;;;5.55;;
5841;SDS011;2947;52.276;9.946;2023-05-28T03:28:48;12.10;;;5.75;;
5841;SDS011;2947;52.276;9.946;2023-05-28T03:31:13;12.35;;;5.80;;
5841;SDS011;2947;52.276;9.946;2023-05-28T03:33:39;14.60;;;5.65;;
5841;SDS011;2947;52.276;9.946;2023-05-28T03:36:05;14.20;;;5.70;;
5841;SDS011;2947;52.276;9.946;2023-05-28T03:38:32;19.85;;;10.55;;
5841;SDS011;2947;52.276;9.946;2023-05-28T03:40:57;15.80;;;7.22;;
5841;SDS011;2947;52.276;9.946;2023-05-28T03:43:24;14.97;;;5.63;;
5841;SDS011;2947;52.276;9.946;2023-05-28T03:45:50;23.17;;;5.15;;
5841;SDS011;2947;52.276;9.946;2023-05-28T03:48:16;17.20;;;6.05;;
5841;SDS011;2947;52.276;9.946;2023-05-28T03:50:41;13.43;;;5.50;;
5841;SDS011;2947;52.276;9.946;2023-05-28T03:53:07;12.50;;;6.10;;
5841;SDS011;2947;52.276;9.946;2023-05-28T03:55:33;14.40;;;5.97;;
5841;SDS011;2947;52.276;9.946;2023-05-28T03:58:00;9.57;;;5.80;;
5841;SDS011;2947;52.276;9.946;2023-05-28T04:00:27;16.02;;;6.05;;
5841;SDS011;2947;52.276;9.946;2023-05-28T04:02:53;17.77;;;5.85;;
5841;SDS011;2947;52.276;9.946;2023-05-28T04:05:19;14.88;;;6.07;;
5841;SDS011;2947;52.276;9.946;2023-05-28T04:07:45;12.48;;;6.00;;
5841;SDS011;2947;52.276;9.946;2023-05-28T04:10:10;12.43;;;5.50;;
5841;SDS011;2947;52.276;9.946;2023-05-28T04:12:36;9.70;;;5.87;;
5841;SDS011;2947;52.276;9.946;2023-05-28T04:15:02;11.03;;;5.47;;
5841;SDS011;2947;52.276;9.946;2023-05-28T04:17:29;10.33;;;6.13;;
5841;SDS011;2947;52.276;9.946;2023-05-28T04:19:54;11.35;;;5.72;;
5841;SDS011;2947;52.276;9.946;2023-05-28T04:22:20;16.77;;;6.53;;
5841;SDS011;2947;52.276;9.946;2023-05-28T04:24:48;16.70;;;6.10;;
5841;SDS011;2947;52.276;9.946;2023-05-28T04:27:16;16.10;;;5.87;;
5841;SDS011;2947;52.276;9.946;2023-05-28T04:29:42;12.13;;;5.70;;
5841;SDS011;2947;52.276;9.946;2023-05-28T04:32:09;16.60;;;6.13;;
5841;SDS011;2947;52.276;9.946;2023-05-28T04:34:34;12.75;;;5.82;;
5841;SDS011;2947;52.276;9.946;2023-05-28T04:37:02;15.47;;;5.90;;
5841;SDS011;2947;52.276;9.946;2023-05-28T04:39:29;13.50;;;5.63;;
5841;SDS011;2947;52.276;9.946;2023-05-28T04:41:55;12.40;;;5.27;;
5841;SDS011;2947;52.276;9.946;2023-05-28T04:44:20;16.57;;;5.67;;
5841;SDS011;2947;52.276;9.946;2023-05-28T04:46:51;9.93;;;5.00;;
5841;SDS011;2947;52.276;9.946;2023-05-28T04:49:17;9.03;;;4.90;;
5841;SDS011;2947;52.276;9.946;2023-05-28T04:51:42;14.13;;;5.30;;
5841;SDS011;2947;52.276;9.946;2023-05-28T04:54:08;11.43;;;5.03;;
5841;SDS011;2947;52.276;9.946;2023-05-28T04:56:37;14.23;;;5.77;;
5841;SDS011;2947;52.276;9.946;2023-05-28T04:59:03;11.53;;;6.97;;
5841;SDS011;2947;52.276;9.946;2023-05-28T05:01:30;9.83;;;5.33;;
5841;SDS011;2947;52.276;9.946;2023-05-28T05:03:58;13.93;;;5.70;;
5841;SDS011;2947;52.276;9.946;2023-05-28T05:06:25;14.23;;;6.37;;
5841;SDS011;2947;52.276;9.946;2023-05-28T05:08:50;15.50;;;6.00;;
5841;SDS011;2947;52.276;9.946;2023-05-28T05:11:16;14.50;;;6.57;;
5841;SDS011;2947;52.276;9.946;2023-05-28T05:13:42;10.88;;;5.53;;
5841;SDS011;2947;52.276;9.946;2023-05-28T05:16:07;13.23;;;5.30;;
5841;SDS011;2947;52.276;9.946;2023-05-28T05:18:33;11.82;;;5.82;;
5841;SDS011;2947;52.276;9.946;2023-05-28T05:20:59;10.82;;;5.82;;
5841;SDS011;2947;52.276;9.946;2023-05-28T05:23:25;11.07;;;4.57;;
5841;SDS011;2947;52.276;9.946;2023-05-28T05:25:51;8.65;;;4.93;;
5841;SDS011;2947;52.276;9.946;2023-05-28T05:28:17;11.20;;;4.65;;
5841;SDS011;2947;52.276;9.946;2023-05-28T05:30:43;13.18;;;5.07;;
5841;SDS011;2947;52.276;9.946;2023-05-28T05:33:09;12.00;;;5.18;;
5841;SDS011;2947;52.276;9.946;2023-05-28T05:35:35;11.40;;;4.38;;
5841;SDS011;2947;52.276;9.946;2023-05-28T05:38:01;9.73;;;4.70;;
5841;SDS011;2947;52.276;9.946;2023-05-28T05:40:27;11.60;;;4.60;;
5841;SDS011;2947;52.276;9.946;2023-05-28T05:42:53;13.30;;;4.35;;
5841;SDS011;2947;52.276;9.946;2023-05-28T05:45:19;14.52;;;5.25;;
5841;SDS011;2947;52.276;9.946;2023-05-28T05:47:44;12.15;;;5.03;;
5841;SDS011;2947;52.276;9.946;2023-05-28T05:50:10;13.20;;;4.90;;
5841;SDS011;2947;52.276;9.946;2023-05-28T05:52:39;13.40;;;4.07;;
5841;SDS011;2947;52.276;9.946;2023-05-28T05:55:06;10.70;;;4.13;;
5841;SDS011;2947;52.276;9.946;2023-05-28T05:57:33;14.93;;;4.50;;
5841;SDS011;2947;52.276;9.946;2023-05-28T06:00:01;8.30;;;3.83;;
5841;SDS011;2947;52.276;9.946;2023-05-28T06:02:35;7.93;;;4.25;;
5841;SDS011;2947;52.276;9.946;2023-05-28T06:05:02;12.98;;;5.03;;
5841;SDS011;2947;52.276;9.946;2023-05-28T06:07:29;9.85;;;5.20;;
5841;SDS011;2947;52.276;9.946;2023-05-28T06:09:54;11.30;;;4.50;;
5841;SDS011;2947;52.276;9.946;2023-05-28T06:12:20;18.00;;;4.82;;
5841;SDS011;2947;52.276;9.946;2023-05-28T06:14:46;12.07;;;5.25;;
5841;SDS011;2947;52.276;9.946;2023-05-28T06:17:12;11.15;;;5.05;;
5841;SDS011;2947;52.276;9.946;2023-05-28T06:19:37;13.70;;;6.18;;
5841;SDS011;2947;52.276;9.946;2023-05-28T06:22:04;11.48;;;4.57;;
5841;SDS011;2947;52.276;9.946;2023-05-28T06:24:30;12.02;;;5.30;;
5841;SDS011;2947;52.276;9.946;2023-05-28T06:26:57;14.50;;;4.95;;
5841;SDS011;2947;52.276;9.946;2023-05-28T06:29:23;9.38;;;4.80;;
5841;SDS011;2947;52.276;9.946;2023-05-28T06:31:48;12.15;;;4.57;;
5841;SDS011;2947;52.276;9.946;2023-05-28T06:34:14;11.13;;;4.43;;
5841;SDS011;2947;52.276;9.946;2023-05-28T06:36:40;14.80;;;5.93;;
5841;SDS011;2947;52.276;9.946;2023-05-28T06:39:06;13.73;;;4.30;;
5841;SDS011;2947;52.276;9.946;2023-05-28T06:41:32;13.02;;;3.97;;
5841;SDS011;2947;52.276;9.946;2023-05-28T06:43:58;14.88;;;5.05;;
5841;SDS011;2947;52.276;9.946;2023-05-28T06:46:24;10.45;;;4.18;;
5841;SDS011;2947;52.276;9.946;2023-05-28T06:48:53;11.05;;;4.38;;
5841;SDS011;2947;52.276;9.946;2023-05-28T06:51:19;14.90;;;4.95;;
5841;SDS011;2947;52.276;9.946;2023-05-28T06:53:45;8.18;;;3.97;;
5841;SDS011;2947;52.276;9.946;2023-05-28T06:56:11;11.85;;;4.22;;
5841;SDS011;2947;52.276;9.946;2023-05-28T06:58:37;8.50;;;3.58;;
5841;SDS011;2947;52.276;9.946;2023-05-28T07:01:03;11.52;;;3.38;;
5841;SDS011;2947;52.276;9.946;2023-05-28T07:03:29;16.45;;;4.43;;
5841;SDS011;2947;52.276;9.946;2023-05-28T07:05:55;8.70;;;3.67;;
5841;SDS011;2947;52.276;9.946;2023-05-28T07:08:21;12.15;;;3.72;;
5841;SDS011;2947;52.276;9.946;2023-05-28T07:10:47;8.85;;;3.10;;
5841;SDS011;2947;52.276;9.946;2023-05-28T07:13:12;12.35;;;4.00;;
5841;SDS011;2947;52.276;9.946;2023-05-28T07:15:38;23.30;;;6.18;;
5841;SDS011;2947;52.276;9.946;2023-05-28T07:18:04;8.23;;;3.40;;
5841;SDS011;2947;52.276;9.946;2023-05-28T07:20:29;9.05;;;3.70;;
5841;SDS011;2947;52.276;9.946;2023-05-28T07:22:55;9.13;;;3.90;;
5841;SDS011;2947;52.276;9.946;2023-05-28T07:25:21;6.30;;;3.65;;
5841;SDS011;2947;52.276;9.946;2023-05-28T07:27:47;8.55;;;3.83;;
5841;SDS011;2947;52.276;9.946;2023-05-28T07:30:13;11.25;;;4.18;;
5841;SDS011;2947;52.276;9.946;2023-05-28T07:32:39;6.78;;;3.03;;
5841;SDS011;2947;52.276;9.946;2023-05-28T07:35:05;10.05;;;3.08;;
5841;SDS011;2947;52.276;9.946;2023-05-28T07:37:31;9.50;;;3.45;;
5841;SDS011;2947;52.276;9.946;2023-05-28T07:39:57;10.50;;;3.88;;
5841;SDS011;2947;52.276;9.946;2023-05-28T07:42:23;7.25;;;3.53;;
5841;SDS011;2947;52.276;9.946;2023-05-28T07:44:49;15.80;;;4.35;;
5841;SDS011;2947;52.276;9.946;2023-05-28T07:47:14;8.10;;;3.60;;
5841;SDS011;2947;52.276;9.946;2023-05-28T07:49:40;7.80;;;3.97;;
5841;SDS011;2947;52.276;9.946;2023-05-28T07:52:06;9.10;;;3.88;;
5841;SDS011;2947;52.276;9.946;2023-05-28T07:54:33;10.88;;;4.82;;
5841;SDS011;2947;52.276;9.946;2023-05-28T07:56:59;11.05;;;4.35;;
5841;SDS011;2947;52.276;9.946;2023-05-28T07:59:25;8.05;;;3.58;;
5841;SDS011;2947;52.276;9.946;2023-05-28T08:01:51;12.98;;;3.90;;
5841;SDS011;2947;52.276;9.946;2023-05-28T08:04:17;7.00;;;3.15;;
5841;SDS011;2947;52.276;9.946;2023-05-28T08:06:43;7.93;;;3.72;;
5841;SDS011;2947;52.276;9.946;2023-05-28T08:09:09;11.65;;;3.75;;
5841;SDS011;2947;52.276;9.946;2023-05-28T08:11:35;7.32;;;3.35;;
5841;SDS011;2947;52.276;9.946;2023-05-28T08:14:00;13.60;;;3.50;;
5841;SDS011;2947;52.276;9.946;2023-05-28T08:16:26;7.63;;;3.25;;
5841;SDS011;2947;52.276;9.946;2023-05-28T08:18:52;9.88;;;2.75;;
5841;SDS011;2947;52.276;9.946;2023-05-28T08:21:17;7.75;;;3.00;;
5841;SDS011;2947;52.276;9.946;2023-05-28T08:23:43;7.70;;;3.28;;
5841;SDS011;2947;52.276;9.946;2023-05-28T08:26:09;11.80;;;4.07;;
5841;SDS011;2947;52.276;9.946;2023-05-28T08:28:35;6.18;;;2.55;;
5841;SDS011;2947;52.276;9.946;2023-05-28T08:31:01;6.10;;;3.60;;
5841;SDS011;2947;52.276;9.946;2023-05-28T08:33:26;5.80;;;2.67;;
5841;SDS011;2947;52.276;9.946;2023-05-28T08:35:52;9.93;;;2.85;;
5841;SDS011;2947;52.276;9.946;2023-05-28T08:38:18;8.10;;;2.30;;
5841;SDS011;2947;52.276;9.946;2023-05-28T08:40:46;8.63;;;3.20;;
5841;SDS011;2947;52.276;9.946;2023-05-28T08:43:18;8.52;;;2.90;;
5841;SDS011;2947;52.276;9.946;2023-05-28T08:45:44;8.20;;;2.95;;
5841;SDS011;2947;52.276;9.946;2023-05-28T08:48:11;6.22;;;2.78;;
5841;SDS011;2947;52.276;9.946;2023-05-28T08:50:38;5.60;;;2.17;;
5841;SDS011;2947;52.276;9.946;2023-05-28T08:53:07;6.60;;;2.70;;
5841;SDS011;2947;52.276;9.946;2023-05-28T08:55:36;4.38;;;2.40;;
5841;SDS011;2947;52.276;9.946;2023-05-28T08:58:02;12.48;;;2.28;;
5841;SDS011;2947;52.276;9.946;2023-05-28T09:00:28;4.78;;;2.30;;
5841;SDS011;2947;52.276;9.946;2023-05-28T09:02:54;5.90;;;2.92;;
5841;SDS011;2947;52.276;9.946;2023-05-28T09:05:19;5.50;;;2.22;;
5841;SDS011;2947;52.276;9.946;2023-05-28T09:07:45;4.43;;;2.13;;
5841;SDS011;2947;52.276;9.946;2023-05-28T09:10:11;4.65;;;2.20;;
5841;SDS011;2947;52.276;9.946;2023-05-28T09:12:37;4.63;;;2.40;;
5841;SDS011;2947;52.276;9.946;2023-05-28T09:15:05;8.60;;;2.95;;
5841;SDS011;2947;52.276;9.946;2023-05-28T09:20:09;5.28;;;2.38;;
5841;SDS011;2947;52.276;9.946;2023-05-28T09:22:38;5.90;;;2.45;;
5841;SDS011;2947;52.276;9.946;2023-05-28T09:25:05;6.65;;;2.72;;
5841;SDS011;2947;52.276;9.946;2023-05-28T09:27:33;6.05;;;2.80;;
5841;SDS011;2947;52.276;9.946;2023-05-28T09:30:04;7.13;;;3.00;;
5841;SDS011;2947;52.276;9.946;2023-05-28T09:32:33;6.90;;;2.67;;
5841;SDS011;2947;52.276;9.946;2023-05-28T09:35:00;5.85;;;2.70;;
5841;SDS011;2947;52.276;9.946;2023-05-28T09:37:27;7.75;;;2.50;;
5841;SDS011;2947;52.276;9.946;2023-05-28T09:40:01;5.70;;;2.40;;
5841;SDS011;2947;52.276;9.946;2023-05-28T09:42:38;8.57;;;2.25;;
5841;SDS011;2947;52.276;9.946;2023-05-28T09:45:07;5.18;;;2.40;;
5841;SDS011;2947;52.276;9.946;2023-05-28T09:47:41;7.40;;;2.30;;
5841;SDS011;2947;52.276;9.946;2023-05-28T09:50:08;4.43;;;2.05;;
5841;SDS011;2947;52.276;9.946;2023-05-28T09:52:35;8.88;;;2.90;;
5841;SDS011;2947;52.276;9.946;2023-05-28T09:55:06;5.65;;;2.45;;
5841;SDS011;2947;52.276;9.946;2023-05-28T09:57:33;5.38;;;2.10;;
5841;SDS011;2947;52.276;9.946;2023-05-28T10:00:01;6.80;;;2.50;;
5841;SDS011;2947;52.276;9.946;2023-05-28T10:05:25;5.70;;;2.83;;
5841;SDS011;2947;52.276;9.946;2023-05-28T10:07:56;5.32;;;2.80;;
5841;SDS011;2947;52.276;9.946;2023-05-28T10:10:25;7.30;;;2.88;;
5841;SDS011;2947;52.276;9.946;2023-05-28T10:12:54;7.07;;;2.70;;
5841;SDS011;2947;52.276;9.946;2023-05-28T10:15:21;5.53;;;2.80;;
5841;SDS011;2947;52.276;9.946;2023-05-28T10:17:48;9.63;;;2.47;;
5841;SDS011;2947;52.276;9.946;2023-05-28T10:20:16;5.78;;;2.60;;
5841;SDS011;2947;52.276;9.946;2023-05-28T10:22:43;6.72;;;2.65;;
5841;SDS011;2947;52.276;9.946;2023-05-28T10:25:09;6.05;;;2.67;;
5841;SDS011;2947;52.276;9.946;2023-05-28T10:27:36;7.07;;;2.63;;
5841;SDS011;2947;52.276;9.946;2023-05-28T10:30:09;4.35;;;1.98;;
5841;SDS011;2947;52.276;9.946;2023-05-28T10:32:40;6.65;;;2.92;;
5841;SDS011;2947;52.276;9.946;2023-05-28T10:35:10;8.32;;;3.42;;
5841;SDS011;2947;52.276;9.946;2023-05-28T10:37:39;7.50;;;2.08;;
5841;SDS011;2947;52.276;9.946;2023-05-28T10:40:08;7.60;;;2.53;;
5841;SDS011;2947;52.276;9.946;2023-05-28T10:42:39;5.15;;;2.50;;
5841;SDS011;2947;52.276;9.946;2023-05-28T10:45:08;5.85;;;2.78;;
5841;SDS011;2947;52.276;9.946;2023-05-28T10:47:41;7.45;;;2.50;;
5841;SDS011;2947;52.276;9.946;2023-05-28T10:50:16;8.05;;;2.70;;
5841;SDS011;2947;52.276;9.946;2023-05-28T11:01:03;5.55;;;2.20;;
5841;SDS011;2947;52.276;9.946;2023-05-28T11:06:06;10.27;;;2.53;;
5841;SDS011;2947;52.276;9.946;2023-05-28T11:08:37;7.50;;;2.80;;
5841;SDS011;2947;52.276;9.946;2023-05-28T11:11:05;7.65;;;2.28;;
5841;SDS011;2947;52.276;9.946;2023-05-28T11:13:32;5.95;;;2.30;;
5841;SDS011;2947;52.276;9.946;2023-05-28T11:16:08;4.50;;;2.25;;
5841;SDS011;2947;52.276;9.946;2023-05-28T11:18:35;7.88;;;2.00;;
5841;SDS011;2947;52.276;9.946;2023-05-28T11:21:02;6.63;;;2.15;;
5841;SDS011;2947;52.276;9.946;2023-05-28T11:23:32;6.03;;;2.60;;
5841;SDS011;2947;52.276;9.946;2023-05-28T11:26:01;6.43;;;2.72;;
5841;SDS011;2947;52.276;9.946;2023-05-28T11:28:30;5.25;;;2.53;;
5841;SDS011;2947;52.276;9.946;2023-05-28T11:30:57;5.53;;;2.30;;
5841;SDS011;2947;52.276;9.946;2023-05-28T11:33:26;8.02;;;2.30;;
5841;SDS011;2947;52.276;9.946;2023-05-28T11:35:59;7.47;;;2.70;;
5841;SDS011;2947;52.276;9.946;2023-05-28T11:38:26;6.50;;;2.50;;
5841;SDS011;2947;52.276;9.946;2023-05-28T11:41:01;6.57;;;2.45;;
5841;SDS011;2947;52.276;9.946;2023-05-28T11:43:27;7.18;;;2.22;;
5841;SDS011;2947;52.276;9.946;2023-05-28T11:45:57;8.30;;;2.75;;
5841;SDS011;2947;52.276;9.946;2023-05-28T11:48:25;6.82;;;2.80;;
5841;SDS011;2947;52.276;9.946;2023-05-28T11:50:55;10.52;;;2.70;;
5841;SDS011;2947;52.276;9.946;2023-05-28T11:53:41;6.88;;;2.75;;
5841;SDS011;2947;52.276;9.946;2023-05-28T11:56:09;5.25;;;2.33;;
5841;SDS011;2947;52.276;9.946;2023-05-28T11:58:37;7.15;;;2.80;;
5841;SDS011;2947;52.276;9.946;2023-05-28T12:01:06;6.90;;;2.67;;
5841;SDS011;2947;52.276;9.946;2023-05-28T12:03:32;11.55;;;2.33;;
5841;SDS011;2947;52.276;9.946;2023-05-28T12:05:59;4.38;;;2.28;;
5841;SDS011;2947;52.276;9.946;2023-05-28T12:08:28;7.20;;;2.60;;
5841;SDS011;2947;52.276;9.946;2023-05-28T12:11:00;4.20;;;2.13;;
5841;SDS011;2947;52.276;9.946;2023-05-28T12:13:34;6.35;;;2.20;;
5841;SDS011;2947;52.276;9.946;2023-05-28T12:16:06;6.80;;;2.10;;
5841;SDS011;2947;52.276;9.946;2023-05-28T12:18:43;5.93;;;3.10;;
5841;SDS011;2947;52.276;9.946;2023-05-28T12:21:10;6.28;;;2.58;;
5841;SDS011;2947;52.276;9.946;2023-05-28T12:23:44;6.50;;;2.45;;
5841;SDS011;2947;52.276;9.946;2023-05-28T12:26:13;6.68;;;2.15;;
5841;SDS011;2947;52.276;9.946;2023-05-28T12:28:40;7.53;;;2.75;;
5841;SDS011;2947;52.276;9.946;2023-05-28T12:31:06;6.75;;;2.30;;
5841;SDS011;2947;52.276;9.946;2023-05-28T12:33:33;9.70;;;2.70;;
5841;SDS011;2947;52.276;9.946;2023-05-28T12:35:59;6.80;;;2.40;;
5841;SDS011;2947;52.276;9.946;2023-05-28T12:38:25;11.10;;;2.60;;
5841;SDS011;2947;52.276;9.946;2023-05-28T12:40:51;6.85;;;2.30;;
5841;SDS011;2947;52.276;9.946;2023-05-28T12:43:17;7.35;;;2.75;;
5841;SDS011;2947;52.276;9.946;2023-05-28T12:45:43;5.93;;;2.50;;
5841;SDS011;2947;52.276;9.946;2023-05-28T12:48:09;6.15;;;2.50;;
5841;SDS011;2947;52.276;9.946;2023-05-28T12:50:35;8.68;;;2.63;;
5841;SDS011;2947;52.276;9.946;2023-05-28T12:53:01;6.57;;;2.22;;
5841;SDS011;2947;52.276;9.946;2023-05-28T12:55:30;9.27;;;3.22;;
5841;SDS011;2947;52.276;9.946;2023-05-28T12:57:56;7.85;;;3.00;;
5841;SDS011;2947;52.276;9.946;2023-05-28T13:00:22;10.65;;;2.25;;
5841;SDS011;2947;52.276;9.946;2023-05-28T13:02:49;5.82;;;2.00;;
5841;SDS011;2947;52.276;9.946;2023-05-28T13:05:15;5.80;;;2.17;;
5841;SDS011;2947;52.276;9.946;2023-05-28T13:07:41;8.90;;;2.28;;
5841;SDS011;2947;52.276;9.946;2023-05-28T13:10:08;6.68;;;2.10;;
5841;SDS011;2947;52.276;9.946;2023-05-28T13:12:36;6.03;;;2.13;;
5841;SDS011;2947;52.276;9.946;2023-05-28T13:15:05;6.20;;;2.00;;
5841;SDS011;2947;52.276;9.946;2023-05-28T13:17:32;7.38;;;2.95;;
5841;SDS011;2947;52.276;9.946;2023-05-28T13:19:58;5.57;;;2.00;;
5841;SDS011;2947;52.276;9.946;2023-05-28T13:22:24;7.20;;;2.50;;
5841;SDS011;2947;52.276;9.946;2023-05-28T13:24:50;5.97;;;2.60;;
5841;SDS011;2947;52.276;9.946;2023-05-28T13:27:16;8.68;;;3.38;;
5841;SDS011;2947;52.276;9.946;2023-05-28T13:29:42;4.30;;;2.40;;
5841;SDS011;2947;52.276;9.946;2023-05-28T13:32:08;9.82;;;2.92;;
5841;SDS011;2947;52.276;9.946;2023-05-28T13:34:34;9.48;;;3.00;;
5841;SDS011;2947;52.276;9.946;2023-05-28T13:37:00;6.13;;;2.60;;
5841;SDS011;2947;52.276;9.946;2023-05-28T13:39:25;7.22;;;2.45;;
5841;SDS011;2947;52.276;9.946;2023-05-28T13:41:51;9.70;;;3.22;;
5841;SDS011;2947;52.276;9.946;2023-05-28T13:44:17;6.38;;;2.63;;
5841;SDS011;2947;52.276;9.946;2023-05-28T13:46:43;6.40;;;2.30;;
5841;SDS011;2947;52.276;9.946;2023-05-28T13:49:09;4.65;;;1.85;;
5841;SDS011;2947;52.276;9.946;2023-05-28T13:51:35;5.38;;;2.35;;
5841;SDS011;2947;52.276;9.946;2023-05-28T13:54:04;7.35;;;2.78;;
5841;SDS011;2947;52.276;9.946;2023-05-28T13:56:31;5.32;;;2.58;;
5841;SDS011;2947;52.276;9.946;2023-05-28T13:58:56;5.63;;;2.42;;
5841;SDS011;2947;52.276;9.946;2023-05-28T14:01:22;5.90;;;2.60;;
5841;SDS011;2947;52.276;9.946;2023-05-28T14:03:48;8.73;;;2.58;;
5841;SDS011;2947;52.276;9.946;2023-05-28T14:06:14;7.95;;;3.00;;
5841;SDS011;2947;52.276;9.946;2023-05-28T14:08:39;7.97;;;2.53;;
5841;SDS011;2947;52.276;9.946;2023-05-28T14:11:05;8.70;;;3.15;;
5841;SDS011;2947;52.276;9.946;2023-05-28T14:13:31;7.78;;;2.85;;
5841;SDS011;2947;52.276;9.946;2023-05-28T14:15:59;9.27;;;2.10;;
5841;SDS011;2947;52.276;9.946;2023-05-28T14:18:25;7.90;;;2.33;;
5841;SDS011;2947;52.276;9.946;2023-05-28T14:20:51;4.35;;;2.10;;
5841;SDS011;2947;52.276;9.946;2023-05-28T14:23:17;6.93;;;2.33;;
5841;SDS011;2947;52.276;9.946;2023-05-28T14:25:43;7.63;;;2.20;;
5841;SDS011;2947;52.276;9.946;2023-05-28T14:28:09;7.72;;;2.20;;
5841;SDS011;2947;52.276;9.946;2023-05-28T14:30:34;4.82;;;2.40;;
5841;SDS011;2947;52.276;9.946;2023-05-28T14:33:00;8.07;;;3.30;;
5841;SDS011;2947;52.276;9.946;2023-05-28T14:35:26;6.57;;;2.72;;
5841;SDS011;2947;52.276;9.946;2023-05-28T14:37:51;7.10;;;2.28;;
5841;SDS011;2947;52.276;9.946;2023-05-28T14:40:17;7.85;;;2.63;;
5841;SDS011;2947;52.276;9.946;2023-05-28T14:42:43;4.97;;;2.03;;
5841;SDS011;2947;52.276;9.946;2023-05-28T14:45:10;7.75;;;2.58;;
5841;SDS011;2947;52.276;9.946;2023-05-28T14:47:37;6.75;;;3.15;;
5841;SDS011;2947;52.276;9.946;2023-05-28T14:50:03;8.65;;;2.53;;
5841;SDS011;2947;52.276;9.946;2023-05-28T14:52:30;7.07;;;2.65;;
5841;SDS011;2947;52.276;9.946;2023-05-28T14:54:57;7.85;;;2.65;;
5841;SDS011;2947;52.276;9.946;2023-05-28T14:57:24;4.72;;;2.33;;
5841;SDS011;2947;52.276;9.946;2023-05-28T14:59:52;6.80;;;3.28;;
5841;SDS011;2947;52.276;9.946;2023-05-28T15:02:23;5.25;;;2.50;;
5841;SDS011;2947;52.276;9.946;2023-05-28T15:04:48;6.20;;;2.78;;
5841;SDS011;2947;52.276;9.946;2023-05-28T15:07:14;7.35;;;2.35;;
5841;SDS011;2947;52.276;9.946;2023-05-28T15:09:40;7.00;;;2.53;;
5841;SDS011;2947;52.276;9.946;2023-05-28T15:12:06;8.25;;;2.45;;
5841;SDS011;2947;52.276;9.946;2023-05-28T15:14:35;5.15;;;2.20;;
5841;SDS011;2947;52.276;9.946;2023-05-28T15:17:01;7.57;;;2.13;;
5841;SDS011;2947;52.276;9.946;2023-05-28T15:19:27;5.35;;;2.13;;
5841;SDS011;2947;52.276;9.946;2023-05-28T15:21:53;5.88;;;2.20;;